Ekwok, Alaska
Current Conditions -  °F | °C
As of 11:56 PM on Saturday 20 Dec 2014 (Local Time) from PANW Reporting Station
Clear Clear  
Wind Chill: -8°   Ceiling: Unl
Heat Index:   Visibility: 10mi
Dew Point:   Wind: 13mph
Humidity: 80%   Direction: 360°N
Pressure: 29.03"   Gusts: NA
Location:  59.35°N, 157.48°W
Report Text: PANW 210856Z AUTO 36011KT 10SM CLR M13/M16 A2903 RMK AO2 TSNO 53013 T11331161 411001133 SLP815 $
Loading
Personal Weather Stations






























Interactive Weather Map New forecast layout! Learn more

10-Day Weather Forecast

Advertisements
Track Severe Weather on mobile